sensor_id;sensor_type;location;lat;lon;timestamp;P1;durP1;ratioP1;P2;durP2;ratioP2
50443;SDS011;36370;52.216;21.142;2022-11-20T00:00:26;141.32;;;57.65;;
50443;SDS011;36370;52.216;21.142;2022-11-20T00:04:48;134.75;;;56.15;;
50443;SDS011;36370;52.216;21.142;2022-11-20T00:08:50;129.55;;;53.00;;
50443;SDS011;36370;52.216;21.142;2022-11-20T00:12:52;125.15;;;53.80;;
50443;SDS011;36370;52.216;21.142;2022-11-20T00:16:54;127.15;;;52.67;;
50443;SDS011;36370;52.216;21.142;2022-11-20T00:21:04;136.00;;;56.47;;
50443;SDS011;36370;52.216;21.142;2022-11-20T00:25:12;133.83;;;53.20;;
50443;SDS011;36370;52.216;21.142;2022-11-20T00:29:14;125.25;;;53.17;;
50443;SDS011;36370;52.216;21.142;2022-11-20T00:33:17;119.72;;;51.95;;
50443;SDS011;36370;52.216;21.142;2022-11-20T00:37:18;145.55;;;57.10;;
50443;SDS011;36370;52.216;21.142;2022-11-20T00:41:20;127.55;;;53.78;;
50443;SDS011;36370;52.216;21.142;2022-11-20T00:45:23;140.30;;;56.08;;
50443;SDS011;36370;52.216;21.142;2022-11-20T00:49:24;137.05;;;55.50;;
50443;SDS011;36370;52.216;21.142;2022-11-20T00:53:26;122.10;;;53.67;;
50443;SDS011;36370;52.216;21.142;2022-11-20T00:57:29;141.25;;;57.35;;
50443;SDS011;36370;52.216;21.142;2022-11-20T01:01:30;136.98;;;57.50;;
50443;SDS011;36370;52.216;21.142;2022-11-20T01:05:34;125.75;;;56.95;;
50443;SDS011;36370;52.216;21.142;2022-11-20T01:09:36;124.68;;;53.75;;
50443;SDS011;36370;52.216;21.142;2022-11-20T01:13:38;135.82;;;57.00;;
50443;SDS011;36370;52.216;21.142;2022-11-20T01:17:42;131.63;;;55.05;;
50443;SDS011;36370;52.216;21.142;2022-11-20T01:21:44;121.25;;;51.88;;
50443;SDS011;36370;52.216;21.142;2022-11-20T01:25:47;137.45;;;57.03;;
50443;SDS011;36370;52.216;21.142;2022-11-20T01:29:49;123.75;;;53.97;;
50443;SDS011;36370;52.216;21.142;2022-11-20T01:33:52;129.60;;;51.67;;
50443;SDS011;36370;52.216;21.142;2022-11-20T01:37:55;130.23;;;58.10;;
50443;SDS011;36370;52.216;21.142;2022-11-20T01:41:57;125.25;;;54.25;;
50443;SDS011;36370;52.216;21.142;2022-11-20T01:46:18;131.13;;;57.03;;
50443;SDS011;36370;52.216;21.142;2022-11-20T01:50:24;127.05;;;54.42;;
50443;SDS011;36370;52.216;21.142;2022-11-20T01:54:35;131.40;;;56.65;;
50443;SDS011;36370;52.216;21.142;2022-11-20T01:58:45;132.15;;;55.55;;
50443;SDS011;36370;52.216;21.142;2022-11-20T02:02:53;127.70;;;55.60;;
50443;SDS011;36370;52.216;21.142;2022-11-20T02:06:59;136.68;;;59.88;;
50443;SDS011;36370;52.216;21.142;2022-11-20T02:11:03;129.25;;;53.00;;
50443;SDS011;36370;52.216;21.142;2022-11-20T02:15:05;129.40;;;54.72;;
50443;SDS011;36370;52.216;21.142;2022-11-20T02:19:08;126.88;;;52.42;;
50443;SDS011;36370;52.216;21.142;2022-11-20T02:23:16;123.68;;;53.33;;
50443;SDS011;36370;52.216;21.142;2022-11-20T02:27:28;132.10;;;54.92;;
50443;SDS011;36370;52.216;21.142;2022-11-20T02:31:34;120.75;;;53.00;;
50443;SDS011;36370;52.216;21.142;2022-11-20T02:35:42;134.95;;;54.83;;
50443;SDS011;36370;52.216;21.142;2022-11-20T02:39:47;120.93;;;49.53;;
50443;SDS011;36370;52.216;21.142;2022-11-20T02:43:52;124.03;;;52.58;;
50443;SDS011;36370;52.216;21.142;2022-11-20T02:47:54;134.55;;;57.22;;
50443;SDS011;36370;52.216;21.142;2022-11-20T02:51:56;120.97;;;52.40;;
50443;SDS011;36370;52.216;21.142;2022-11-20T02:55:58;128.93;;;50.75;;
50443;SDS011;36370;52.216;21.142;2022-11-20T03:00:00;126.35;;;53.03;;
50443;SDS011;36370;52.216;21.142;2022-11-20T03:04:02;123.75;;;53.85;;
50443;SDS011;36370;52.216;21.142;2022-11-20T03:08:04;123.85;;;54.30;;
50443;SDS011;36370;52.216;21.142;2022-11-20T03:12:06;134.50;;;56.13;;
50443;SDS011;36370;52.216;21.142;2022-11-20T03:16:12;120.63;;;52.33;;
50443;SDS011;36370;52.216;21.142;2022-11-20T03:20:16;136.75;;;55.35;;
50443;SDS011;36370;52.216;21.142;2022-11-20T03:24:18;117.80;;;51.78;;
50443;SDS011;36370;52.216;21.142;2022-11-20T03:28:19;127.32;;;56.00;;
50443;SDS011;36370;52.216;21.142;2022-11-20T03:32:21;125.70;;;55.67;;
50443;SDS011;36370;52.216;21.142;2022-11-20T03:36:23;125.85;;;52.92;;
50443;SDS011;36370;52.216;21.142;2022-11-20T03:40:26;128.48;;;53.42;;
50443;SDS011;36370;52.216;21.142;2022-11-20T03:44:28;133.32;;;56.05;;
50443;SDS011;36370;52.216;21.142;2022-11-20T03:48:30;135.18;;;54.15;;
50443;SDS011;36370;52.216;21.142;2022-11-20T03:52:31;138.55;;;58.75;;
50443;SDS011;36370;52.216;21.142;2022-11-20T03:56:34;135.38;;;57.55;;
50443;SDS011;36370;52.216;21.142;2022-11-20T04:00:38;139.73;;;58.17;;
50443;SDS011;36370;52.216;21.142;2022-11-20T04:04:40;135.68;;;56.28;;
50443;SDS011;36370;52.216;21.142;2022-11-20T04:08:42;121.10;;;52.92;;
50443;SDS011;36370;52.216;21.142;2022-11-20T04:12:44;127.82;;;55.72;;
50443;SDS011;36370;52.216;21.142;2022-11-20T04:16:46;125.00;;;56.05;;
50443;SDS011;36370;52.216;21.142;2022-11-20T04:20:49;131.07;;;56.10;;
50443;SDS011;36370;52.216;21.142;2022-11-20T04:24:50;126.88;;;55.10;;
50443;SDS011;36370;52.216;21.142;2022-11-20T04:28:52;116.90;;;52.22;;
50443;SDS011;36370;52.216;21.142;2022-11-20T04:32:54;122.20;;;51.55;;
50443;SDS011;36370;52.216;21.142;2022-11-20T04:36:56;115.95;;;49.22;;
50443;SDS011;36370;52.216;21.142;2022-11-20T04:41:02;118.88;;;50.15;;
50443;SDS011;36370;52.216;21.142;2022-11-20T04:45:06;127.50;;;52.15;;
50443;SDS011;36370;52.216;21.142;2022-11-20T04:49:08;124.90;;;52.95;;
50443;SDS011;36370;52.216;21.142;2022-11-20T04:53:10;116.13;;;49.70;;
50443;SDS011;36370;52.216;21.142;2022-11-20T04:57:12;111.68;;;46.13;;
50443;SDS011;36370;52.216;21.142;2022-11-20T05:01:19;111.45;;;47.88;;
50443;SDS011;36370;52.216;21.142;2022-11-20T05:05:23;117.57;;;47.47;;
50443;SDS011;36370;52.216;21.142;2022-11-20T05:09:25;118.57;;;51.13;;
50443;SDS011;36370;52.216;21.142;2022-11-20T05:13:27;116.15;;;49.67;;
50443;SDS011;36370;52.216;21.142;2022-11-20T05:17:29;122.32;;;51.33;;
50443;SDS011;36370;52.216;21.142;2022-11-20T05:21:31;120.70;;;49.40;;
50443;SDS011;36370;52.216;21.142;2022-11-20T05:25:34;113.82;;;49.40;;
50443;SDS011;36370;52.216;21.142;2022-11-20T05:29:35;112.80;;;49.70;;
50443;SDS011;36370;52.216;21.142;2022-11-20T05:33:39;112.03;;;48.05;;
50443;SDS011;36370;52.216;21.142;2022-11-20T05:37:42;120.20;;;50.45;;
50443;SDS011;36370;52.216;21.142;2022-11-20T05:41:44;122.35;;;52.00;;
50443;SDS011;36370;52.216;21.142;2022-11-20T05:45:55;126.22;;;52.50;;
50443;SDS011;36370;52.216;21.142;2022-11-20T05:49:57;122.60;;;50.60;;
50443;SDS011;36370;52.216;21.142;2022-11-20T05:53:58;108.82;;;48.13;;
50443;SDS011;36370;52.216;21.142;2022-11-20T05:58:00;119.13;;;51.70;;
50443;SDS011;36370;52.216;21.142;2022-11-20T06:02:02;119.32;;;50.17;;
50443;SDS011;36370;52.216;21.142;2022-11-20T06:06:05;129.55;;;52.70;;
50443;SDS011;36370;52.216;21.142;2022-11-20T06:10:07;127.47;;;55.78;;
50443;SDS011;36370;52.216;21.142;2022-11-20T06:14:10;139.25;;;56.35;;
50443;SDS011;36370;52.216;21.142;2022-11-20T06:18:11;148.57;;;58.88;;
50443;SDS011;36370;52.216;21.142;2022-11-20T06:22:13;143.35;;;58.35;;
50443;SDS011;36370;52.216;21.142;2022-11-20T06:26:16;131.63;;;57.67;;
50443;SDS011;36370;52.216;21.142;2022-11-20T06:30:19;131.30;;;56.60;;
50443;SDS011;36370;52.216;21.142;2022-11-20T06:34:21;124.07;;;53.25;;
50443;SDS011;36370;52.216;21.142;2022-11-20T06:38:23;124.70;;;54.72;;
50443;SDS011;36370;52.216;21.142;2022-11-20T06:42:26;130.35;;;56.58;;
50443;SDS011;36370;52.216;21.142;2022-11-20T06:46:28;140.57;;;58.38;;
50443;SDS011;36370;52.216;21.142;2022-11-20T06:50:29;128.40;;;54.75;;
50443;SDS011;36370;52.216;21.142;2022-11-20T06:54:31;138.30;;;60.40;;
50443;SDS011;36370;52.216;21.142;2022-11-20T06:58:34;140.45;;;62.67;;
50443;SDS011;36370;52.216;21.142;2022-11-20T07:02:37;136.40;;;57.95;;
50443;SDS011;36370;52.216;21.142;2022-11-20T07:06:38;136.93;;;57.17;;
50443;SDS011;36370;52.216;21.142;2022-11-20T07:10:40;134.70;;;59.92;;
50443;SDS011;36370;52.216;21.142;2022-11-20T07:14:42;132.45;;;57.10;;
50443;SDS011;36370;52.216;21.142;2022-11-20T07:18:44;137.50;;;57.10;;
50443;SDS011;36370;52.216;21.142;2022-11-20T07:22:57;140.75;;;61.33;;
50443;SDS011;36370;52.216;21.142;2022-11-20T07:26:59;137.85;;;56.38;;
50443;SDS011;36370;52.216;21.142;2022-11-20T07:31:02;128.35;;;55.88;;
50443;SDS011;36370;52.216;21.142;2022-11-20T07:35:04;146.90;;;62.20;;
50443;SDS011;36370;52.216;21.142;2022-11-20T07:39:06;123.25;;;55.35;;
50443;SDS011;36370;52.216;21.142;2022-11-20T07:43:08;125.22;;;53.72;;
50443;SDS011;36370;52.216;21.142;2022-11-20T07:47:10;111.38;;;51.08;;
50443;SDS011;36370;52.216;21.142;2022-11-20T07:51:12;112.22;;;49.15;;
50443;SDS011;36370;52.216;21.142;2022-11-20T07:55:14;116.90;;;51.17;;
50443;SDS011;36370;52.216;21.142;2022-11-20T07:59:17;118.78;;;56.42;;
50443;SDS011;36370;52.216;21.142;2022-11-20T08:03:19;117.90;;;54.63;;
50443;SDS011;36370;52.216;21.142;2022-11-20T08:07:26;112.00;;;50.73;;
50443;SDS011;36370;52.216;21.142;2022-11-20T08:11:27;110.43;;;50.88;;
50443;SDS011;36370;52.216;21.142;2022-11-20T08:15:49;112.07;;;51.33;;
50443;SDS011;36370;52.216;21.142;2022-11-20T08:19:52;110.60;;;49.63;;
50443;SDS011;36370;52.216;21.142;2022-11-20T08:23:54;116.50;;;50.90;;
50443;SDS011;36370;52.216;21.142;2022-11-20T08:27:59;100.88;;;48.10;;
50443;SDS011;36370;52.216;21.142;2022-11-20T08:32:16;111.68;;;49.53;;
50443;SDS011;36370;52.216;21.142;2022-11-20T08:36:18;104.20;;;46.50;;
50443;SDS011;36370;52.216;21.142;2022-11-20T08:40:21;96.50;;;47.17;;
50443;SDS011;36370;52.216;21.142;2022-11-20T08:44:23;97.20;;;46.75;;
50443;SDS011;36370;52.216;21.142;2022-11-20T08:48:25;95.88;;;44.90;;
50443;SDS011;36370;52.216;21.142;2022-11-20T08:52:27;89.57;;;44.20;;
50443;SDS011;36370;52.216;21.142;2022-11-20T08:56:29;102.57;;;47.30;;
50443;SDS011;36370;52.216;21.142;2022-11-20T09:00:31;93.15;;;46.53;;
50443;SDS011;36370;52.216;21.142;2022-11-20T09:04:34;98.40;;;45.70;;
50443;SDS011;36370;52.216;21.142;2022-11-20T09:08:36;96.38;;;45.45;;
50443;SDS011;36370;52.216;21.142;2022-11-20T09:12:39;98.97;;;45.83;;
50443;SDS011;36370;52.216;21.142;2022-11-20T09:16:40;95.22;;;47.95;;
50443;SDS011;36370;52.216;21.142;2022-11-20T09:20:42;106.93;;;49.45;;
50443;SDS011;36370;52.216;21.142;2022-11-20T09:24:44;93.22;;;44.80;;
50443;SDS011;36370;52.216;21.142;2022-11-20T09:28:46;99.47;;;49.10;;
50443;SDS011;36370;52.216;21.142;2022-11-20T09:32:48;98.65;;;49.33;;
50443;SDS011;36370;52.216;21.142;2022-11-20T09:36:50;99.80;;;49.50;;
50443;SDS011;36370;52.216;21.142;2022-11-20T09:45:09;95.35;;;46.92;;
50443;SDS011;36370;52.216;21.142;2022-11-20T09:49:23;93.75;;;46.72;;
50443;SDS011;36370;52.216;21.142;2022-11-20T09:53:52;98.22;;;46.28;;
50443;SDS011;36370;52.216;21.142;2022-11-20T09:58:07;92.25;;;44.92;;
50443;SDS011;36370;52.216;21.142;2022-11-20T10:20:30;96.82;;;45.40;;
50443;SDS011;36370;52.216;21.142;2022-11-20T10:24:52;88.13;;;42.40;;
50443;SDS011;36370;52.216;21.142;2022-11-20T10:33:16;91.57;;;40.50;;
50443;SDS011;36370;52.216;21.142;2022-11-20T10:37:22;88.65;;;42.00;;
50443;SDS011;36370;52.216;21.142;2022-11-20T10:41:28;91.35;;;43.75;;
50443;SDS011;36370;52.216;21.142;2022-11-20T10:49:55;84.28;;;41.97;;
50443;SDS011;36370;52.216;21.142;2022-11-20T11:03:23;82.07;;;41.13;;
50443;SDS011;36370;52.216;21.142;2022-11-20T11:07:30;92.45;;;45.58;;
50443;SDS011;36370;52.216;21.142;2022-11-20T11:11:37;95.40;;;43.92;;
50443;SDS011;36370;52.216;21.142;2022-11-20T11:15:40;80.57;;;41.00;;
50443;SDS011;36370;52.216;21.142;2022-11-20T11:19:42;84.53;;;42.75;;
50443;SDS011;36370;52.216;21.142;2022-11-20T11:23:44;85.32;;;41.53;;
50443;SDS011;36370;52.216;21.142;2022-11-20T11:27:46;79.80;;;40.88;;
50443;SDS011;36370;52.216;21.142;2022-11-20T11:31:49;87.63;;;41.85;;
50443;SDS011;36370;52.216;21.142;2022-11-20T11:35:52;83.35;;;40.65;;
50443;SDS011;36370;52.216;21.142;2022-11-20T11:39:58;92.28;;;43.67;;
50443;SDS011;36370;52.216;21.142;2022-11-20T11:44:27;83.43;;;41.95;;
50443;SDS011;36370;52.216;21.142;2022-11-20T11:48:55;81.07;;;40.30;;
50443;SDS011;36370;52.216;21.142;2022-11-20T11:53:05;85.80;;;42.20;;
50443;SDS011;36370;52.216;21.142;2022-11-20T11:57:17;85.28;;;41.00;;
50443;SDS011;36370;52.216;21.142;2022-11-20T12:01:29;83.22;;;44.28;;
50443;SDS011;36370;52.216;21.142;2022-11-20T12:05:40;93.65;;;41.97;;
50443;SDS011;36370;52.216;21.142;2022-11-20T12:09:47;79.68;;;39.55;;
50443;SDS011;36370;52.216;21.142;2022-11-20T12:18:17;84.13;;;41.83;;
50443;SDS011;36370;52.216;21.142;2022-11-20T12:22:27;85.22;;;41.53;;
50443;SDS011;36370;52.216;21.142;2022-11-20T12:26:50;85.00;;;41.45;;
50443;SDS011;36370;52.216;21.142;2022-11-20T12:31:11;79.88;;;40.00;;
50443;SDS011;36370;52.216;21.142;2022-11-20T12:35:32;81.60;;;42.45;;
50443;SDS011;36370;52.216;21.142;2022-11-20T12:39:46;86.45;;;39.75;;
50443;SDS011;36370;52.216;21.142;2022-11-20T12:43:59;82.78;;;39.30;;
50443;SDS011;36370;52.216;21.142;2022-11-20T12:57:53;73.60;;;40.30;;
50443;SDS011;36370;52.216;21.142;2022-11-20T13:02:21;85.63;;;41.97;;
50443;SDS011;36370;52.216;21.142;2022-11-20T13:06:25;81.13;;;41.50;;
50443;SDS011;36370;52.216;21.142;2022-11-20T13:10:38;71.65;;;36.42;;
50443;SDS011;36370;52.216;21.142;2022-11-20T13:19:24;87.82;;;42.88;;
50443;SDS011;36370;52.216;21.142;2022-11-20T13:23:27;79.78;;;41.65;;
50443;SDS011;36370;52.216;21.142;2022-11-20T13:27:29;82.85;;;40.40;;
50443;SDS011;36370;52.216;21.142;2022-11-20T13:31:33;82.28;;;40.35;;
50443;SDS011;36370;52.216;21.142;2022-11-20T13:35:37;104.28;;;52.20;;
50443;SDS011;36370;52.216;21.142;2022-11-20T13:39:43;87.55;;;43.13;;
50443;SDS011;36370;52.216;21.142;2022-11-20T13:43:46;83.72;;;43.30;;
50443;SDS011;36370;52.216;21.142;2022-11-20T13:47:49;91.88;;;42.10;;
50443;SDS011;36370;52.216;21.142;2022-11-20T14:01:14;83.03;;;42.40;;
50443;SDS011;36370;52.216;21.142;2022-11-20T14:05:21;93.15;;;42.78;;
50443;SDS011;36370;52.216;21.142;2022-11-20T14:09:25;95.07;;;46.47;;
50443;SDS011;36370;52.216;21.142;2022-11-20T14:13:32;103.40;;;48.60;;
50443;SDS011;36370;52.216;21.142;2022-11-20T14:17:35;97.50;;;47.50;;
50443;SDS011;36370;52.216;21.142;2022-11-20T14:21:37;103.32;;;48.53;;
50443;SDS011;36370;52.216;21.142;2022-11-20T14:25:42;102.82;;;50.78;;
50443;SDS011;36370;52.216;21.142;2022-11-20T14:29:47;106.53;;;48.75;;
50443;SDS011;36370;52.216;21.142;2022-11-20T14:33:52;103.30;;;48.78;;
50443;SDS011;36370;52.216;21.142;2022-11-20T14:37:55;103.13;;;47.88;;
50443;SDS011;36370;52.216;21.142;2022-11-20T14:41:58;105.22;;;48.17;;
50443;SDS011;36370;52.216;21.142;2022-11-20T14:46:09;100.60;;;48.63;;
50443;SDS011;36370;52.216;21.142;2022-11-20T14:50:16;101.55;;;48.10;;
50443;SDS011;36370;52.216;21.142;2022-11-20T14:54:29;100.78;;;47.85;;
50443;SDS011;36370;52.216;21.142;2022-11-20T14:58:32;121.07;;;53.10;;
50443;SDS011;36370;52.216;21.142;2022-11-20T15:02:38;104.18;;;52.20;;
50443;SDS011;36370;52.216;21.142;2022-11-20T15:06:52;107.07;;;53.00;;
50443;SDS011;36370;52.216;21.142;2022-11-20T15:10:55;111.35;;;51.15;;
50443;SDS011;36370;52.216;21.142;2022-11-20T15:14:58;118.10;;;55.95;;
50443;SDS011;36370;52.216;21.142;2022-11-20T15:19:02;114.13;;;54.05;;
50443;SDS011;36370;52.216;21.142;2022-11-20T15:23:12;126.75;;;52.85;;
50443;SDS011;36370;52.216;21.142;2022-11-20T15:27:16;117.18;;;54.47;;
50443;SDS011;36370;52.216;21.142;2022-11-20T15:31:19;107.45;;;51.58;;
50443;SDS011;36370;52.216;21.142;2022-11-20T15:35:23;119.88;;;55.80;;
50443;SDS011;36370;52.216;21.142;2022-11-20T15:39:25;114.03;;;53.55;;
50443;SDS011;36370;52.216;21.142;2022-11-20T15:43:26;116.10;;;52.40;;
50443;SDS011;36370;52.216;21.142;2022-11-20T15:47:29;106.20;;;48.50;;
50443;SDS011;36370;52.216;21.142;2022-11-20T15:51:34;112.47;;;53.53;;
50443;SDS011;36370;52.216;21.142;2022-11-20T15:55:37;103.60;;;48.78;;
50443;SDS011;36370;52.216;21.142;2022-11-20T15:59:39;107.80;;;49.95;;
50443;SDS011;36370;52.216;21.142;2022-11-20T16:03:43;109.70;;;49.80;;
50443;SDS011;36370;52.216;21.142;2022-11-20T16:07:45;108.38;;;50.97;;
50443;SDS011;36370;52.216;21.142;2022-11-20T16:11:47;111.32;;;51.58;;
50443;SDS011;36370;52.216;21.142;2022-11-20T16:15:52;116.57;;;52.85;;
50443;SDS011;36370;52.216;21.142;2022-11-20T16:19:58;124.15;;;55.67;;
50443;SDS011;36370;52.216;21.142;2022-11-20T16:24:01;120.32;;;54.88;;
50443;SDS011;36370;52.216;21.142;2022-11-20T16:28:04;125.47;;;58.30;;
50443;SDS011;36370;52.216;21.142;2022-11-20T16:32:08;139.05;;;60.42;;
50443;SDS011;36370;52.216;21.142;2022-11-20T16:36:14;122.45;;;57.50;;
50443;SDS011;36370;52.216;21.142;2022-11-20T16:40:16;126.45;;;58.08;;
50443;SDS011;36370;52.216;21.142;2022-11-20T16:44:18;130.52;;;58.33;;
50443;SDS011;36370;52.216;21.142;2022-11-20T16:48:20;117.80;;;55.58;;
50443;SDS011;36370;52.216;21.142;2022-11-20T16:52:22;123.40;;;55.05;;
50443;SDS011;36370;52.216;21.142;2022-11-20T16:56:25;113.55;;;52.88;;
50443;SDS011;36370;52.216;21.142;2022-11-20T17:00:28;118.45;;;55.10;;
50443;SDS011;36370;52.216;21.142;2022-11-20T17:04:30;115.70;;;51.42;;
50443;SDS011;36370;52.216;21.142;2022-11-20T17:08:32;105.55;;;46.75;;
50443;SDS011;36370;52.216;21.142;2022-11-20T17:12:33;109.32;;;50.05;;
50443;SDS011;36370;52.216;21.142;2022-11-20T17:16:36;104.82;;;48.42;;
50443;SDS011;36370;52.216;21.142;2022-11-20T17:20:37;104.75;;;45.85;;
50443;SDS011;36370;52.216;21.142;2022-11-20T17:24:39;108.60;;;47.13;;
50443;SDS011;36370;52.216;21.142;2022-11-20T17:28:42;114.57;;;50.90;;
50443;SDS011;36370;52.216;21.142;2022-11-20T17:32:47;109.72;;;49.17;;
50443;SDS011;36370;52.216;21.142;2022-11-20T17:36:49;97.78;;;44.83;;
50443;SDS011;36370;52.216;21.142;2022-11-20T17:40:51;102.35;;;48.30;;
50443;SDS011;36370;52.216;21.142;2022-11-20T17:44:52;96.93;;;46.33;;
50443;SDS011;36370;52.216;21.142;2022-11-20T17:48:55;104.07;;;46.50;;
50443;SDS011;36370;52.216;21.142;2022-11-20T17:52:57;106.70;;;49.05;;
50443;SDS011;36370;52.216;21.142;2022-11-20T17:56:59;96.75;;;47.10;;
50443;SDS011;36370;52.216;21.142;2022-11-20T18:01:19;110.75;;;47.75;;
50443;SDS011;36370;52.216;21.142;2022-11-20T18:05:23;100.70;;;46.45;;
50443;SDS011;36370;52.216;21.142;2022-11-20T18:09:26;107.40;;;47.97;;
50443;SDS011;36370;52.216;21.142;2022-11-20T18:13:29;107.80;;;47.72;;
50443;SDS011;36370;52.216;21.142;2022-11-20T18:17:50;119.25;;;53.95;;
50443;SDS011;36370;52.216;21.142;2022-11-20T18:21:52;118.78;;;50.17;;
50443;SDS011;36370;52.216;21.142;2022-11-20T18:25:58;130.35;;;56.30;;
50443;SDS011;36370;52.216;21.142;2022-11-20T18:30:01;130.95;;;57.30;;
50443;SDS011;36370;52.216;21.142;2022-11-20T18:34:03;127.90;;;54.65;;
50443;SDS011;36370;52.216;21.142;2022-11-20T18:38:04;143.82;;;60.95;;
50443;SDS011;36370;52.216;21.142;2022-11-20T18:42:09;140.95;;;61.13;;
50443;SDS011;36370;52.216;21.142;2022-11-20T18:46:31;124.93;;;54.63;;
50443;SDS011;36370;52.216;21.142;2022-11-20T18:50:33;134.65;;;58.67;;
50443;SDS011;36370;52.216;21.142;2022-11-20T18:54:35;146.88;;;61.03;;
50443;SDS011;36370;52.216;21.142;2022-11-20T18:58:37;131.35;;;56.50;;
50443;SDS011;36370;52.216;21.142;2022-11-20T19:02:41;145.00;;;63.42;;
50443;SDS011;36370;52.216;21.142;2022-11-20T19:06:45;150.35;;;62.55;;
50443;SDS011;36370;52.216;21.142;2022-11-20T19:10:49;153.30;;;67.25;;
50443;SDS011;36370;52.216;21.142;2022-11-20T19:14:52;160.35;;;71.28;;
50443;SDS011;36370;52.216;21.142;2022-11-20T19:18:54;145.15;;;61.55;;
50443;SDS011;36370;52.216;21.142;2022-11-20T19:22:58;160.82;;;66.97;;
50443;SDS011;36370;52.216;21.142;2022-11-20T19:26:59;159.20;;;68.93;;
50443;SDS011;36370;52.216;21.142;2022-11-20T19:31:03;149.23;;;66.32;;
50443;SDS011;36370;52.216;21.142;2022-11-20T19:35:09;145.95;;;63.72;;
50443;SDS011;36370;52.216;21.142;2022-11-20T19:39:11;155.05;;;62.92;;
50443;SDS011;36370;52.216;21.142;2022-11-20T19:43:13;136.98;;;61.33;;
50443;SDS011;36370;52.216;21.142;2022-11-20T19:47:15;145.40;;;62.88;;
50443;SDS011;36370;52.216;21.142;2022-11-20T19:51:18;145.27;;;62.20;;
50443;SDS011;36370;52.216;21.142;2022-11-20T19:55:25;132.00;;;57.17;;
50443;SDS011;36370;52.216;21.142;2022-11-20T19:59:27;144.13;;;65.38;;
50443;SDS011;36370;52.216;21.142;2022-11-20T20:03:30;136.55;;;59.92;;
50443;SDS011;36370;52.216;21.142;2022-11-20T20:07:32;135.10;;;62.75;;
50443;SDS011;36370;52.216;21.142;2022-11-20T20:11:34;138.85;;;64.38;;
50443;SDS011;36370;52.216;21.142;2022-11-20T20:15:40;149.23;;;65.85;;
50443;SDS011;36370;52.216;21.142;2022-11-20T20:19:42;153.73;;;66.03;;
50443;SDS011;36370;52.216;21.142;2022-11-20T20:23:44;136.57;;;60.63;;
50443;SDS011;36370;52.216;21.142;2022-11-20T20:27:52;144.52;;;60.40;;
50443;SDS011;36370;52.216;21.142;2022-11-20T20:31:54;135.45;;;61.60;;
50443;SDS011;36370;52.216;21.142;2022-11-20T20:35:57;149.45;;;61.47;;
50443;SDS011;36370;52.216;21.142;2022-11-20T20:39:59;135.57;;;59.03;;
50443;SDS011;36370;52.216;21.142;2022-11-20T20:44:01;125.40;;;59.00;;
50443;SDS011;36370;52.216;21.142;2022-11-20T20:48:22;127.43;;;59.10;;
50443;SDS011;36370;52.216;21.142;2022-11-20T20:52:25;137.27;;;60.67;;
50443;SDS011;36370;52.216;21.142;2022-11-20T20:56:29;131.82;;;59.45;;
50443;SDS011;36370;52.216;21.142;2022-11-20T21:00:31;129.55;;;57.40;;
50443;SDS011;36370;52.216;21.142;2022-11-20T21:04:33;128.57;;;56.05;;
50443;SDS011;36370;52.216;21.142;2022-11-20T21:08:36;132.43;;;57.22;;
50443;SDS011;36370;52.216;21.142;2022-11-20T21:12:41;124.68;;;55.13;;
50443;SDS011;36370;52.216;21.142;2022-11-20T21:16:43;124.13;;;59.03;;
50443;SDS011;36370;52.216;21.142;2022-11-20T21:20:45;127.72;;;58.95;;
50443;SDS011;36370;52.216;21.142;2022-11-20T21:25:06;131.43;;;61.65;;
50443;SDS011;36370;52.216;21.142;2022-11-20T21:29:08;128.00;;;56.75;;
50443;SDS011;36370;52.216;21.142;2022-11-20T21:33:10;127.30;;;57.92;;
50443;SDS011;36370;52.216;21.142;2022-11-20T21:37:12;131.32;;;60.03;;
50443;SDS011;36370;52.216;21.142;2022-11-20T21:41:14;133.43;;;62.28;;
50443;SDS011;36370;52.216;21.142;2022-11-20T21:45:17;131.25;;;59.03;;
50443;SDS011;36370;52.216;21.142;2022-11-20T21:49:19;134.93;;;58.28;;
50443;SDS011;36370;52.216;21.142;2022-11-20T21:53:20;139.45;;;59.05;;
50443;SDS011;36370;52.216;21.142;2022-11-20T21:57:23;147.30;;;62.60;;
50443;SDS011;36370;52.216;21.142;2022-11-20T22:01:25;139.25;;;60.17;;
50443;SDS011;36370;52.216;21.142;2022-11-20T22:05:29;127.53;;;59.85;;
50443;SDS011;36370;52.216;21.142;2022-11-20T22:09:31;130.95;;;61.58;;
50443;SDS011;36370;52.216;21.142;2022-11-20T22:13:33;143.15;;;64.28;;
50443;SDS011;36370;52.216;21.142;2022-11-20T22:17:53;161.98;;;67.95;;
50443;SDS011;36370;52.216;21.142;2022-11-20T22:22:14;136.52;;;59.63;;
50443;SDS011;36370;52.216;21.142;2022-11-20T22:26:17;134.45;;;58.85;;
50443;SDS011;36370;52.216;21.142;2022-11-20T22:30:23;138.95;;;62.13;;
50443;SDS011;36370;52.216;21.142;2022-11-20T22:34:26;148.95;;;65.45;;
50443;SDS011;36370;52.216;21.142;2022-11-20T22:38:28;133.93;;;58.42;;
50443;SDS011;36370;52.216;21.142;2022-11-20T22:42:33;142.43;;;61.00;;
50443;SDS011;36370;52.216;21.142;2022-11-20T22:46:35;127.10;;;57.60;;
50443;SDS011;36370;52.216;21.142;2022-11-20T22:50:38;126.82;;;56.40;;
50443;SDS011;36370;52.216;21.142;2022-11-20T22:54:39;140.63;;;60.03;;
50443;SDS011;36370;52.216;21.142;2022-11-20T22:58:42;142.23;;;60.60;;
50443;SDS011;36370;52.216;21.142;2022-11-20T23:02:45;143.77;;;60.60;;
50443;SDS011;36370;52.216;21.142;2022-11-20T23:06:47;150.85;;;65.28;;
50443;SDS011;36370;52.216;21.142;2022-11-20T23:10:49;164.57;;;72.22;;
50443;SDS011;36370;52.216;21.142;2022-11-20T23:14:51;158.02;;;66.63;;
50443;SDS011;36370;52.216;21.142;2022-11-20T23:18:53;152.30;;;65.38;;
50443;SDS011;36370;52.216;21.142;2022-11-20T23:22:59;167.07;;;69.50;;
50443;SDS011;36370;52.216;21.142;2022-11-20T23:27:01;157.82;;;67.50;;
50443;SDS011;36370;52.216;21.142;2022-11-20T23:31:04;169.30;;;70.90;;
50443;SDS011;36370;52.216;21.142;2022-11-20T23:35:06;165.82;;;69.90;;
50443;SDS011;36370;52.216;21.142;2022-11-20T23:39:08;167.63;;;73.00;;
50443;SDS011;36370;52.216;21.142;2022-11-20T23:43:10;169.93;;;68.45;;
50443;SDS011;36370;52.216;21.142;2022-11-20T23:51:20;175.63;;;68.15;;
50443;SDS011;36370;52.216;21.142;2022-11-20T23:55:22;177.77;;;74.55;;
50443;SDS011;36370;52.216;21.142;2022-11-20T23:59:23;180.23;;;72.18;;
